ADDS METAR Data INFO
IDs: Format: Raw Decoded Include TAF

Data at: 0859 UTC 20 Oct 2017

KARB 200853Z AUTO 00000KT 10SM CLR 04/01 A3021 RMK AO2 SLP231 T00390006 51002
KARB 200753Z AUTO 31003KT 10SM CLR 04/01 A3020 RMK AO2 SLP229 T00390006
KARB 200653Z AUTO 24003KT 10SM CLR 04/02 A3021 RMK AO2 SLP231 T00390017
KARB 200553Z AUTO 00000KT 10SM CLR 02/01 A3020 RMK AO2 SLP230 T00220011 10094 20022 51007
KARB 200453Z AUTO 00000KT 10SM CLR 03/02 A3020 RMK AO2 SLP230 T00330022 402060022
KARB 200353Z AUTO 00000KT 10SM CLR 03/02 A3019 RMK AO2 SLP225 T00280017
KARB 200253Z AUTO 00000KT 10SM CLR 04/03 A3018 RMK AO2 SLP223 T00440028 53010
KARB 200153Z AUTO 00000KT 10SM CLR 06/03 A3017 RMK AO2 SLP219 T00560028
KARB 200053Z AUTO 28004KT 10SM CLR 07/03 A3016 RMK AO2 SLP217 T00670033
KARB 192353Z AUTO 00000KT 10SM CLR 08/03 A3015 RMK AO2 SLP214 T00780033 10206 20078 53014
KARB 192253Z 25005KT 10SM CLR 14/01 A3014 RMK AO2 SLP206 T01440006
KARB 192153Z 25009KT 10SM CLR 18/01 A3012 RMK AO2 SLP201 T01830011
KARB 192053Z 24011KT 10SM CLR 19/02 A3011 RMK AO2 SLP197 T01940017 53001
KARB 191953Z 26011G20KT 10SM CLR 21/02 A3011 RMK AO2 SLP195 T02060022
KARB 191853Z 25011KT 10SM CLR 21/05 A3010 RMK AO2 SLP193 T02060050
KARB 191753Z 25011G20KT 10SM CLR 20/07 A3011 RMK AO2 SLP196 T02000072 10200 20083 58000
KARB 191653Z 26010KT 10SM CLR 19/08 A3013 RMK AO2 SLP203 T01890083
KARB 191553Z AUTO 24012KT 10SM CLR 18/09 A3012 RMK AO2 SLP201 T01830094
KARB 191453Z AUTO 24008KT 10SM CLR 16/10 A3011 RMK AO2 SLP197 T01610100 51014
KARB 191353Z 20008KT 10SM CLR 12/08 A3010 RMK AO2 SLP194 T01220083
KARB 191253Z 21006KT 10SM CLR 10/07 A3009 RMK AO2 SLP191 T01000072
KARB 191153Z AUTO 21007KT 10SM CLR 08/07 A3007 RMK AO2 SLP184 T00830067 10089 20067 53005
KARB 191053Z AUTO 19008KT 10SM CLR 09/07 A3006 RMK AO2 SLP181 T00890067
KARB 190953Z AUTO 19006KT 10SM CLR 08/06 A3006 RMK AO2 SLP178 T00780056
KARB 190853Z AUTO 18004KT 10SM CLR 08/06 A3005 RMK AO2 SLP177 T00780056 58011
KARB 190753Z AUTO 19003KT 10SM CLR 07/05 A3007 RMK AO2 SLP182 T00720050
KARB 190653Z AUTO 18004KT 10SM CLR 08/05 A3008 RMK AO2 SLP186 T00780050
KARB 190553Z AUTO 18005KT 10SM CLR 08/05 A3009 RMK AO2 SLP188 T00780050 10144 20061 58008
KARB 190453Z AUTO 19004KT 10SM CLR 08/05 A3010 RMK AO2 SLP193 T00780050 402060011
KARB 190353Z AUTO 16005KT 10SM CLR 09/05 A3010 RMK AO2 SLP194 T00940050
KARB 190253Z AUTO 20005KT 10SM CLR 11/05 A3011 RMK AO2 SLP198 T01060050 53001
KARB 190153Z AUTO 18006KT 10SM CLR 12/06 A3010 RMK AO2 SLP193 T01170056
KARB 190053Z AUTO 17005KT 10SM CLR 13/06 A3010 RMK AO2 SLP196 T01280056
KARB 182353Z AUTO 17005KT 10SM CLR 14/05 A3011 RMK AO2 SLP198 T01390050 10206 20139 56006
KARB 182253Z 18005KT 10SM CLR 16/04 A3011 RMK AO2 SLP199 T01610044
KARB 182153Z 19010KT 10SM CLR 19/04 A3011 RMK AO2 SLP200 T01890039